sensor_id;sensor_type;location;lat;lon;timestamp;temperature;humidity
33988;DHT22;37428;53.580;-1.666;2023-05-21T00:00:59;11.50;68.10
33988;DHT22;37428;53.580;-1.666;2023-05-21T00:04:04;11.40;68.40
33988;DHT22;37428;53.580;-1.666;2023-05-21T00:07:07;11.40;69.00
33988;DHT22;37428;53.580;-1.666;2023-05-21T00:10:10;11.40;69.40
33988;DHT22;37428;53.580;-1.666;2023-05-21T00:13:13;11.40;69.60
33988;DHT22;37428;53.580;-1.666;2023-05-21T00:16:15;11.40;70.00
33988;DHT22;37428;53.580;-1.666;2023-05-21T00:19:19;11.30;70.10
33988;DHT22;37428;53.580;-1.666;2023-05-21T00:22:21;11.30;70.10
33988;DHT22;37428;53.580;-1.666;2023-05-21T00:25:23;11.30;70.30
33988;DHT22;37428;53.580;-1.666;2023-05-21T00:28:26;11.20;70.20
33988;DHT22;37428;53.580;-1.666;2023-05-21T00:31:28;11.10;70.40
33988;DHT22;37428;53.580;-1.666;2023-05-21T00:34:33;11.10;70.30
33988;DHT22;37428;53.580;-1.666;2023-05-21T00:37:35;11.10;70.60
33988;DHT22;37428;53.580;-1.666;2023-05-21T00:40:37;11.00;70.90
33988;DHT22;37428;53.580;-1.666;2023-05-21T00:43:41;11.00;71.00
33988;DHT22;37428;53.580;-1.666;2023-05-21T00:46:44;11.00;70.80
33988;DHT22;37428;53.580;-1.666;2023-05-21T00:49:50;11.10;70.80
33988;DHT22;37428;53.580;-1.666;2023-05-21T00:52:52;11.10;70.90
33988;DHT22;37428;53.580;-1.666;2023-05-21T00:55:55;11.20;71.00
33988;DHT22;37428;53.580;-1.666;2023-05-21T00:58:57;11.20;71.00
33988;DHT22;37428;53.580;-1.666;2023-05-21T01:01:59;11.20;70.80
33988;DHT22;37428;53.580;-1.666;2023-05-21T01:05:05;11.20;70.90
33988;DHT22;37428;53.580;-1.666;2023-05-21T01:08:07;11.10;71.00
33988;DHT22;37428;53.580;-1.666;2023-05-21T01:11:10;11.10;71.10
33988;DHT22;37428;53.580;-1.666;2023-05-21T01:14:12;11.10;71.20
33988;DHT22;37428;53.580;-1.666;2023-05-21T01:17:15;11.00;71.40
33988;DHT22;37428;53.580;-1.666;2023-05-21T01:20:20;11.00;71.60
33988;DHT22;37428;53.580;-1.666;2023-05-21T01:23:24;10.90;71.30
33988;DHT22;37428;53.580;-1.666;2023-05-21T01:26:26;10.80;71.50
33988;DHT22;37428;53.580;-1.666;2023-05-21T01:29:30;10.80;71.70
33988;DHT22;37428;53.580;-1.666;2023-05-21T01:32:35;10.60;71.70
33988;DHT22;37428;53.580;-1.666;2023-05-21T01:35:42;10.60;71.90
33988;DHT22;37428;53.580;-1.666;2023-05-21T01:38:50;10.50;71.70
33988;DHT22;37428;53.580;-1.666;2023-05-21T01:41:54;10.40;71.80
33988;DHT22;37428;53.580;-1.666;2023-05-21T01:44:58;10.40;71.90
33988;DHT22;37428;53.580;-1.666;2023-05-21T01:48:02;10.40;72.30
33988;DHT22;37428;53.580;-1.666;2023-05-21T01:51:06;10.40;72.00
33988;DHT22;37428;53.580;-1.666;2023-05-21T01:54:09;10.40;72.20
33988;DHT22;37428;53.580;-1.666;2023-05-21T01:57:11;10.30;72.60
33988;DHT22;37428;53.580;-1.666;2023-05-21T02:00:14;10.30;72.70
33988;DHT22;37428;53.580;-1.666;2023-05-21T02:03:18;10.30;72.80
33988;DHT22;37428;53.580;-1.666;2023-05-21T02:06:20;10.30;73.00
33988;DHT22;37428;53.580;-1.666;2023-05-21T02:09:23;10.30;73.10
33988;DHT22;37428;53.580;-1.666;2023-05-21T02:12:25;10.30;73.30
33988;DHT22;37428;53.580;-1.666;2023-05-21T02:15:29;10.30;73.40
33988;DHT22;37428;53.580;-1.666;2023-05-21T02:18:36;10.30;73.90
33988;DHT22;37428;53.580;-1.666;2023-05-21T02:21:38;10.30;74.00
33988;DHT22;37428;53.580;-1.666;2023-05-21T02:24:41;10.40;73.80
33988;DHT22;37428;53.580;-1.666;2023-05-21T02:27:44;10.40;73.90
33988;DHT22;37428;53.580;-1.666;2023-05-21T02:30:46;10.40;73.80
33988;DHT22;37428;53.580;-1.666;2023-05-21T02:33:48;10.40;73.90
33988;DHT22;37428;53.580;-1.666;2023-05-21T02:36:51;10.30;73.80
33988;DHT22;37428;53.580;-1.666;2023-05-21T02:39:55;10.30;74.00
33988;DHT22;37428;53.580;-1.666;2023-05-21T02:42:57;10.20;74.10
33988;DHT22;37428;53.580;-1.666;2023-05-21T02:45:59;10.20;74.20
33988;DHT22;37428;53.580;-1.666;2023-05-21T02:49:01;10.20;74.20
33988;DHT22;37428;53.580;-1.666;2023-05-21T02:52:03;10.20;74.20
33988;DHT22;37428;53.580;-1.666;2023-05-21T02:55:10;10.20;74.30
33988;DHT22;37428;53.580;-1.666;2023-05-21T02:58:13;10.20;74.40
33988;DHT22;37428;53.580;-1.666;2023-05-21T03:01:15;10.10;74.10
33988;DHT22;37428;53.580;-1.666;2023-05-21T03:04:17;10.00;73.90
33988;DHT22;37428;53.580;-1.666;2023-05-21T03:07:21;10.00;74.20
33988;DHT22;37428;53.580;-1.666;2023-05-21T03:10:26;10.00;74.70
33988;DHT22;37428;53.580;-1.666;2023-05-21T03:13:28;10.00;74.80
33988;DHT22;37428;53.580;-1.666;2023-05-21T03:16:30;10.00;75.00
33988;DHT22;37428;53.580;-1.666;2023-05-21T03:19:34;10.00;75.10
33988;DHT22;37428;53.580;-1.666;2023-05-21T03:22:36;10.10;75.30
33988;DHT22;37428;53.580;-1.666;2023-05-21T03:25:40;10.10;75.30
33988;DHT22;37428;53.580;-1.666;2023-05-21T03:28:42;10.10;75.00
33988;DHT22;37428;53.580;-1.666;2023-05-21T03:31:44;10.10;74.60
33988;DHT22;37428;53.580;-1.666;2023-05-21T03:34:46;10.10;74.10
33988;DHT22;37428;53.580;-1.666;2023-05-21T03:37:48;10.10;73.70
33988;DHT22;37428;53.580;-1.666;2023-05-21T03:40:52;10.10;73.40
33988;DHT22;37428;53.580;-1.666;2023-05-21T03:43:56;10.10;73.60
33988;DHT22;37428;53.580;-1.666;2023-05-21T03:46:58;10.20;74.00
33988;DHT22;37428;53.580;-1.666;2023-05-21T03:50:00;10.20;73.70
33988;DHT22;37428;53.580;-1.666;2023-05-21T03:53:02;10.20;73.50
33988;DHT22;37428;53.580;-1.666;2023-05-21T03:56:06;10.20;73.80
33988;DHT22;37428;53.580;-1.666;2023-05-21T03:59:08;10.20;73.50
33988;DHT22;37428;53.580;-1.666;2023-05-21T04:02:10;10.20;73.40
33988;DHT22;37428;53.580;-1.666;2023-05-21T04:05:13;10.20;73.20
33988;DHT22;37428;53.580;-1.666;2023-05-21T04:08:15;10.10;73.20
33988;DHT22;37428;53.580;-1.666;2023-05-21T04:11:18;10.10;73.00
33988;DHT22;37428;53.580;-1.666;2023-05-21T04:14:21;10.10;73.20
33988;DHT22;37428;53.580;-1.666;2023-05-21T04:17:23;10.10;73.30
33988;DHT22;37428;53.580;-1.666;2023-05-21T04:20:26;10.10;73.00
33988;DHT22;37428;53.580;-1.666;2023-05-21T04:23:28;10.10;73.20
33988;DHT22;37428;53.580;-1.666;2023-05-21T04:26:32;10.10;73.20
33988;DHT22;37428;53.580;-1.666;2023-05-21T04:29:35;10.20;73.00
33988;DHT22;37428;53.580;-1.666;2023-05-21T04:32:42;10.20;72.70
33988;DHT22;37428;53.580;-1.666;2023-05-21T04:35:45;10.30;72.80
33988;DHT22;37428;53.580;-1.666;2023-05-21T04:38:49;10.30;71.70
33988;DHT22;37428;53.580;-1.666;2023-05-21T04:41:53;10.30;71.20
33988;DHT22;37428;53.580;-1.666;2023-05-21T04:44:56;10.30;70.40
33988;DHT22;37428;53.580;-1.666;2023-05-21T04:47:58;10.30;69.90
33988;DHT22;37428;53.580;-1.666;2023-05-21T04:51:01;10.40;69.80
33988;DHT22;37428;53.580;-1.666;2023-05-21T04:54:05;10.40;68.70
33988;DHT22;37428;53.580;-1.666;2023-05-21T04:57:11;10.40;68.00
33988;DHT22;37428;53.580;-1.666;2023-05-21T05:00:13;10.40;70.00
33988;DHT22;37428;53.580;-1.666;2023-05-21T05:03:16;10.40;70.30
33988;DHT22;37428;53.580;-1.666;2023-05-21T05:06:18;10.40;70.20
33988;DHT22;37428;53.580;-1.666;2023-05-21T05:09:20;10.40;70.00
33988;DHT22;37428;53.580;-1.666;2023-05-21T05:12:26;10.40;70.30
33988;DHT22;37428;53.580;-1.666;2023-05-21T05:15:28;10.30;70.10
33988;DHT22;37428;53.580;-1.666;2023-05-21T05:18:30;10.20;70.20
33988;DHT22;37428;53.580;-1.666;2023-05-21T05:21:33;10.10;71.10
33988;DHT22;37428;53.580;-1.666;2023-05-21T05:24:35;10.10;72.00
33988;DHT22;37428;53.580;-1.666;2023-05-21T05:27:39;10.00;72.30
33988;DHT22;37428;53.580;-1.666;2023-05-21T05:30:41;10.00;72.60
33988;DHT22;37428;53.580;-1.666;2023-05-21T05:33:43;10.10;72.70
33988;DHT22;37428;53.580;-1.666;2023-05-21T05:36:45;10.00;72.70
33988;DHT22;37428;53.580;-1.666;2023-05-21T05:39:47;10.10;72.70
33988;DHT22;37428;53.580;-1.666;2023-05-21T05:42:51;10.30;72.00
33988;DHT22;37428;53.580;-1.666;2023-05-21T05:45:53;10.40;71.30
33988;DHT22;37428;53.580;-1.666;2023-05-21T05:48:55;10.60;72.40
33988;DHT22;37428;53.580;-1.666;2023-05-21T05:51:57;10.80;72.40
33988;DHT22;37428;53.580;-1.666;2023-05-21T05:55:00;11.00;72.40
33988;DHT22;37428;53.580;-1.666;2023-05-21T05:58:04;11.20;72.40
33988;DHT22;37428;53.580;-1.666;2023-05-21T06:01:06;11.30;72.10
33988;DHT22;37428;53.580;-1.666;2023-05-21T06:04:08;11.40;72.10
33988;DHT22;37428;53.580;-1.666;2023-05-21T06:07:10;11.60;71.00
33988;DHT22;37428;53.580;-1.666;2023-05-21T06:10:13;11.60;71.60
33988;DHT22;37428;53.580;-1.666;2023-05-21T06:13:17;11.80;71.10
33988;DHT22;37428;53.580;-1.666;2023-05-21T06:16:19;12.00;70.40
33988;DHT22;37428;53.580;-1.666;2023-05-21T06:19:21;12.20;70.00
33988;DHT22;37428;53.580;-1.666;2023-05-21T06:22:23;12.40;70.20
33988;DHT22;37428;53.580;-1.666;2023-05-21T06:25:26;12.60;69.70
33988;DHT22;37428;53.580;-1.666;2023-05-21T06:28:29;12.70;69.50
33988;DHT22;37428;53.580;-1.666;2023-05-21T06:31:31;12.70;68.10
33988;DHT22;37428;53.580;-1.666;2023-05-21T06:34:33;12.90;67.30
33988;DHT22;37428;53.580;-1.666;2023-05-21T06:37:36;13.00;66.90
33988;DHT22;37428;53.580;-1.666;2023-05-21T06:40:38;13.20;65.20
33988;DHT22;37428;53.580;-1.666;2023-05-21T06:43:41;13.20;65.30
33988;DHT22;37428;53.580;-1.666;2023-05-21T06:46:43;13.30;66.20
33988;DHT22;37428;53.580;-1.666;2023-05-21T06:49:45;13.50;63.70
33988;DHT22;37428;53.580;-1.666;2023-05-21T06:52:49;13.70;62.90
33988;DHT22;37428;53.580;-1.666;2023-05-21T06:55:51;13.90;62.20
33988;DHT22;37428;53.580;-1.666;2023-05-21T06:58:55;14.10;60.90
33988;DHT22;37428;53.580;-1.666;2023-05-21T07:01:59;14.10;60.50
33988;DHT22;37428;53.580;-1.666;2023-05-21T07:05:02;14.20;59.60
33988;DHT22;37428;53.580;-1.666;2023-05-21T07:08:04;13.90;60.70
33988;DHT22;37428;53.580;-1.666;2023-05-21T07:11:06;13.80;60.30
33988;DHT22;37428;53.580;-1.666;2023-05-21T07:14:10;13.80;59.70
33988;DHT22;37428;53.580;-1.666;2023-05-21T07:17:12;13.80;60.30
33988;DHT22;37428;53.580;-1.666;2023-05-21T07:20:14;14.00;61.40
33988;DHT22;37428;53.580;-1.666;2023-05-21T07:23:16;14.40;61.40
33988;DHT22;37428;53.580;-1.666;2023-05-21T07:26:20;14.60;59.20
33988;DHT22;37428;53.580;-1.666;2023-05-21T07:29:26;14.70;58.10
33988;DHT22;37428;53.580;-1.666;2023-05-21T07:32:28;14.90;57.80
33988;DHT22;37428;53.580;-1.666;2023-05-21T07:35:30;15.20;57.50
33988;DHT22;37428;53.580;-1.666;2023-05-21T07:38:32;15.30;56.00
33988;DHT22;37428;53.580;-1.666;2023-05-21T07:41:34;15.40;54.50
33988;DHT22;37428;53.580;-1.666;2023-05-21T07:44:40;15.70;54.90
33988;DHT22;37428;53.580;-1.666;2023-05-21T07:47:43;16.00;53.70
33988;DHT22;37428;53.580;-1.666;2023-05-21T07:50:47;16.20;52.40
33988;DHT22;37428;53.580;-1.666;2023-05-21T07:53:52;16.50;50.20
33988;DHT22;37428;53.580;-1.666;2023-05-21T07:56:54;16.60;49.20
33988;DHT22;37428;53.580;-1.666;2023-05-21T07:59:58;16.50;46.20
33988;DHT22;37428;53.580;-1.666;2023-05-21T08:03:00;16.70;46.10
33988;DHT22;37428;53.580;-1.666;2023-05-21T08:06:02;16.70;45.40
33988;DHT22;37428;53.580;-1.666;2023-05-21T08:09:04;16.70;46.00
33988;DHT22;37428;53.580;-1.666;2023-05-21T08:12:07;16.70;42.10
33988;DHT22;37428;53.580;-1.666;2023-05-21T08:15:10;16.70;39.80
33988;DHT22;37428;53.580;-1.666;2023-05-21T08:18:14;16.80;43.60
33988;DHT22;37428;53.580;-1.666;2023-05-21T08:21:24;17.00;46.00
33988;DHT22;37428;53.580;-1.666;2023-05-21T08:24:28;17.20;46.80
33988;DHT22;37428;53.580;-1.666;2023-05-21T08:27:30;17.50;45.20
33988;DHT22;37428;53.580;-1.666;2023-05-21T08:30:33;17.50;43.30
33988;DHT22;37428;53.580;-1.666;2023-05-21T08:33:36;17.70;44.30
33988;DHT22;37428;53.580;-1.666;2023-05-21T08:36:38;18.10;44.30
33988;DHT22;37428;53.580;-1.666;2023-05-21T08:39:42;18.30;41.50
33988;DHT22;37428;53.580;-1.666;2023-05-21T08:42:46;18.50;40.80
33988;DHT22;37428;53.580;-1.666;2023-05-21T08:45:52;18.60;40.90
33988;DHT22;37428;53.580;-1.666;2023-05-21T08:48:55;18.60;39.80
33988;DHT22;37428;53.580;-1.666;2023-05-21T08:51:59;18.70;40.60
33988;DHT22;37428;53.580;-1.666;2023-05-21T08:55:04;19.10;40.50
33988;DHT22;37428;53.580;-1.666;2023-05-21T08:58:06;19.30;39.40
33988;DHT22;37428;53.580;-1.666;2023-05-21T09:01:12;19.50;40.00
33988;DHT22;37428;53.580;-1.666;2023-05-21T09:04:16;19.40;40.80
33988;DHT22;37428;53.580;-1.666;2023-05-21T09:07:20;19.40;39.80
33988;DHT22;37428;53.580;-1.666;2023-05-21T09:10:29;19.70;39.50
33988;DHT22;37428;53.580;-1.666;2023-05-21T09:13:36;20.10;38.10
33988;DHT22;37428;53.580;-1.666;2023-05-21T09:16:40;20.10;38.00
33988;DHT22;37428;53.580;-1.666;2023-05-21T09:20:05;20.30;38.20
33988;DHT22;37428;53.580;-1.666;2023-05-21T09:23:10;20.50;37.00
33988;DHT22;37428;53.580;-1.666;2023-05-21T09:26:16;20.50;37.40
33988;DHT22;37428;53.580;-1.666;2023-05-21T09:29:18;20.70;36.30
33988;DHT22;37428;53.580;-1.666;2023-05-21T09:32:21;20.70;36.30
33988;DHT22;37428;53.580;-1.666;2023-05-21T09:35:24;20.90;36.70
33988;DHT22;37428;53.580;-1.666;2023-05-21T09:38:26;21.10;37.10
33988;DHT22;37428;53.580;-1.666;2023-05-21T09:41:33;21.10;36.90
33988;DHT22;37428;53.580;-1.666;2023-05-21T09:44:36;21.00;36.50
33988;DHT22;37428;53.580;-1.666;2023-05-21T09:47:43;21.10;37.50
33988;DHT22;37428;53.580;-1.666;2023-05-21T09:50:45;21.30;36.80
33988;DHT22;37428;53.580;-1.666;2023-05-21T09:53:49;21.30;36.50
33988;DHT22;37428;53.580;-1.666;2023-05-21T09:56:52;21.70;36.20
33988;DHT22;37428;53.580;-1.666;2023-05-21T09:59:54;21.50;33.90
33988;DHT22;37428;53.580;-1.666;2023-05-21T10:03:00;21.20;34.50
33988;DHT22;37428;53.580;-1.666;2023-05-21T10:06:03;21.10;34.80
33988;DHT22;37428;53.580;-1.666;2023-05-21T10:09:08;21.50;35.50
33988;DHT22;37428;53.580;-1.666;2023-05-21T10:12:10;21.70;34.00
33988;DHT22;37428;53.580;-1.666;2023-05-21T10:15:14;22.10;34.40
33988;DHT22;37428;53.580;-1.666;2023-05-21T10:18:19;22.00;34.90
33988;DHT22;37428;53.580;-1.666;2023-05-21T10:21:23;21.90;34.20
33988;DHT22;37428;53.580;-1.666;2023-05-21T10:24:26;21.90;34.70
33988;DHT22;37428;53.580;-1.666;2023-05-21T10:27:29;22.50;34.80
33988;DHT22;37428;53.580;-1.666;2023-05-21T10:30:32;22.90;34.70
33988;DHT22;37428;53.580;-1.666;2023-05-21T10:33:37;22.40;32.00
33988;DHT22;37428;53.580;-1.666;2023-05-21T10:36:40;22.30;33.00
33988;DHT22;37428;53.580;-1.666;2023-05-21T10:39:42;22.60;34.30
33988;DHT22;37428;53.580;-1.666;2023-05-21T10:47:08;22.40;32.60
33988;DHT22;37428;53.580;-1.666;2023-05-21T10:50:44;22.60;33.30
33988;DHT22;37428;53.580;-1.666;2023-05-21T10:57:39;22.90;31.90
33988;DHT22;37428;53.580;-1.666;2023-05-21T11:00:45;23.00;33.00
33988;DHT22;37428;53.580;-1.666;2023-05-21T11:03:48;23.30;33.10
33988;DHT22;37428;53.580;-1.666;2023-05-21T11:06:53;23.20;32.00
33988;DHT22;37428;53.580;-1.666;2023-05-21T11:13:28;23.20;32.20
33988;DHT22;37428;53.580;-1.666;2023-05-21T11:16:35;23.30;33.60
33988;DHT22;37428;53.580;-1.666;2023-05-21T11:19:41;23.50;31.00
33988;DHT22;37428;53.580;-1.666;2023-05-21T11:22:44;23.60;32.90
33988;DHT22;37428;53.580;-1.666;2023-05-21T11:25:57;23.50;31.90
33988;DHT22;37428;53.580;-1.666;2023-05-21T11:29:08;23.30;32.70
33988;DHT22;37428;53.580;-1.666;2023-05-21T11:32:13;23.70;32.50
33988;DHT22;37428;53.580;-1.666;2023-05-21T11:35:21;23.70;31.00
33988;DHT22;37428;53.580;-1.666;2023-05-21T11:38:27;23.90;29.80
33988;DHT22;37428;53.580;-1.666;2023-05-21T11:41:30;23.30;30.60
33988;DHT22;37428;53.580;-1.666;2023-05-21T11:44:50;23.50;30.70
33988;DHT22;37428;53.580;-1.666;2023-05-21T11:47:52;23.50;30.80
33988;DHT22;37428;53.580;-1.666;2023-05-21T11:50:56;23.00;30.80
33988;DHT22;37428;53.580;-1.666;2023-05-21T11:53:59;22.70;33.10
33988;DHT22;37428;53.580;-1.666;2023-05-21T11:57:05;23.30;34.10
33988;DHT22;37428;53.580;-1.666;2023-05-21T12:00:13;23.60;30.60
33988;DHT22;37428;53.580;-1.666;2023-05-21T12:03:16;23.70;29.90
33988;DHT22;37428;53.580;-1.666;2023-05-21T12:06:18;23.70;29.20
33988;DHT22;37428;53.580;-1.666;2023-05-21T12:09:27;23.70;28.70
33988;DHT22;37428;53.580;-1.666;2023-05-21T12:12:30;24.00;31.40
33988;DHT22;37428;53.580;-1.666;2023-05-21T12:15:33;24.10;30.80
33988;DHT22;37428;53.580;-1.666;2023-05-21T12:18:35;24.30;31.20
33988;DHT22;37428;53.580;-1.666;2023-05-21T12:21:37;24.40;31.60
33988;DHT22;37428;53.580;-1.666;2023-05-21T12:24:42;24.50;31.30
33988;DHT22;37428;53.580;-1.666;2023-05-21T12:27:45;24.80;30.80
33988;DHT22;37428;53.580;-1.666;2023-05-21T12:30:47;24.60;30.40
33988;DHT22;37428;53.580;-1.666;2023-05-21T12:33:49;24.30;29.50
33988;DHT22;37428;53.580;-1.666;2023-05-21T12:36:52;24.30;28.80
33988;DHT22;37428;53.580;-1.666;2023-05-21T12:39:57;23.90;29.00
33988;DHT22;37428;53.580;-1.666;2023-05-21T12:42:59;24.00;30.90
33988;DHT22;37428;53.580;-1.666;2023-05-21T12:46:01;24.50;31.50
33988;DHT22;37428;53.580;-1.666;2023-05-21T12:49:04;24.90;31.00
33988;DHT22;37428;53.580;-1.666;2023-05-21T12:52:08;25.10;32.60
33988;DHT22;37428;53.580;-1.666;2023-05-21T12:55:12;25.20;30.10
33988;DHT22;37428;53.580;-1.666;2023-05-21T12:58:15;25.20;30.00
33988;DHT22;37428;53.580;-1.666;2023-05-21T13:01:22;24.90;31.10
33988;DHT22;37428;53.580;-1.666;2023-05-21T13:04:24;24.60;30.40
33988;DHT22;37428;53.580;-1.666;2023-05-21T13:07:28;24.30;28.90
33988;DHT22;37428;53.580;-1.666;2023-05-21T13:10:31;24.20;30.80
33988;DHT22;37428;53.580;-1.666;2023-05-21T13:13:34;24.50;29.80
33988;DHT22;37428;53.580;-1.666;2023-05-21T13:16:36;24.70;31.20
33988;DHT22;37428;53.580;-1.666;2023-05-21T13:19:38;24.40;30.60
33988;DHT22;37428;53.580;-1.666;2023-05-21T13:22:41;25.00;29.90
33988;DHT22;37428;53.580;-1.666;2023-05-21T13:25:46;24.70;30.50
33988;DHT22;37428;53.580;-1.666;2023-05-21T13:28:48;24.30;31.10
33988;DHT22;37428;53.580;-1.666;2023-05-21T13:31:50;24.30;31.10
33988;DHT22;37428;53.580;-1.666;2023-05-21T13:34:52;24.40;31.80
33988;DHT22;37428;53.580;-1.666;2023-05-21T13:37:54;24.40;31.90
33988;DHT22;37428;53.580;-1.666;2023-05-21T13:40:58;24.50;30.70
33988;DHT22;37428;53.580;-1.666;2023-05-21T13:44:00;24.90;30.90
33988;DHT22;37428;53.580;-1.666;2023-05-21T13:47:02;24.80;30.00
33988;DHT22;37428;53.580;-1.666;2023-05-21T13:50:06;24.50;29.10
33988;DHT22;37428;53.580;-1.666;2023-05-21T13:53:08;24.80;31.30
33988;DHT22;37428;53.580;-1.666;2023-05-21T13:59:43;25.10;27.10
33988;DHT22;37428;53.580;-1.666;2023-05-21T14:02:45;25.60;27.20
33988;DHT22;37428;53.580;-1.666;2023-05-21T14:05:56;25.80;27.20
33988;DHT22;37428;53.580;-1.666;2023-05-21T14:09:30;25.80;24.90
33988;DHT22;37428;53.580;-1.666;2023-05-21T14:12:45;25.70;25.50
33988;DHT22;37428;53.580;-1.666;2023-05-21T14:16:17;26.10;26.30
33988;DHT22;37428;53.580;-1.666;2023-05-21T14:19:52;26.20;25.10
33988;DHT22;37428;53.580;-1.666;2023-05-21T14:23:06;25.90;25.00
33988;DHT22;37428;53.580;-1.666;2023-05-21T14:26:08;26.00;24.40
33988;DHT22;37428;53.580;-1.666;2023-05-21T14:29:11;26.20;24.80
33988;DHT22;37428;53.580;-1.666;2023-05-21T14:32:14;26.00;23.10
33988;DHT22;37428;53.580;-1.666;2023-05-21T14:35:36;25.90;23.70
33988;DHT22;37428;53.580;-1.666;2023-05-21T14:38:49;26.10;23.40
33988;DHT22;37428;53.580;-1.666;2023-05-21T14:41:53;25.60;23.00
33988;DHT22;37428;53.580;-1.666;2023-05-21T14:45:22;25.80;23.90
33988;DHT22;37428;53.580;-1.666;2023-05-21T14:48:40;26.10;24.80
33988;DHT22;37428;53.580;-1.666;2023-05-21T14:52:04;26.00;24.10
33988;DHT22;37428;53.580;-1.666;2023-05-21T14:55:38;25.80;24.70
33988;DHT22;37428;53.580;-1.666;2023-05-21T14:59:06;26.00;24.90
33988;DHT22;37428;53.580;-1.666;2023-05-21T15:02:22;25.50;24.60
33988;DHT22;37428;53.580;-1.666;2023-05-21T15:05:26;25.30;24.80
33988;DHT22;37428;53.580;-1.666;2023-05-21T15:08:31;24.50;25.20
33988;DHT22;37428;53.580;-1.666;2023-05-21T15:11:44;24.00;25.60
33988;DHT22;37428;53.580;-1.666;2023-05-21T15:14:56;23.90;26.80
33988;DHT22;37428;53.580;-1.666;2023-05-21T15:18:13;24.10;26.80
33988;DHT22;37428;53.580;-1.666;2023-05-21T15:24:57;25.30;27.50
33988;DHT22;37428;53.580;-1.666;2023-05-21T15:28:05;25.40;27.20
33988;DHT22;37428;53.580;-1.666;2023-05-21T15:31:43;25.20;27.60
33988;DHT22;37428;53.580;-1.666;2023-05-21T15:34:49;24.70;27.00
33988;DHT22;37428;53.580;-1.666;2023-05-21T15:38:10;24.70;27.30
33988;DHT22;37428;53.580;-1.666;2023-05-21T15:45:48;24.80;29.40
33988;DHT22;37428;53.580;-1.666;2023-05-21T15:49:01;25.20;29.60
33988;DHT22;37428;53.580;-1.666;2023-05-21T15:52:13;25.40;29.60
33988;DHT22;37428;53.580;-1.666;2023-05-21T15:55:17;25.40;31.80
33988;DHT22;37428;53.580;-1.666;2023-05-21T16:02:08;24.20;30.30
33988;DHT22;37428;53.580;-1.666;2023-05-21T16:05:27;24.00;32.40
33988;DHT22;37428;53.580;-1.666;2023-05-21T16:12:42;23.80;32.30
33988;DHT22;37428;53.580;-1.666;2023-05-21T16:16:46;23.50;32.00
33988;DHT22;37428;53.580;-1.666;2023-05-21T16:23:26;23.20;33.10
33988;DHT22;37428;53.580;-1.666;2023-05-21T16:27:07;23.10;33.00
33988;DHT22;37428;53.580;-1.666;2023-05-21T16:30:16;23.10;33.90
33988;DHT22;37428;53.580;-1.666;2023-05-21T16:33:26;23.40;33.80
33988;DHT22;37428;53.580;-1.666;2023-05-21T16:37:01;23.30;32.70
33988;DHT22;37428;53.580;-1.666;2023-05-21T16:40:33;23.00;33.80
33988;DHT22;37428;53.580;-1.666;2023-05-21T16:43:53;22.90;33.50
33988;DHT22;37428;53.580;-1.666;2023-05-21T16:46:59;22.80;33.40
33988;DHT22;37428;53.580;-1.666;2023-05-21T16:50:04;22.60;34.20
33988;DHT22;37428;53.580;-1.666;2023-05-21T16:53:18;22.60;35.20
33988;DHT22;37428;53.580;-1.666;2023-05-21T16:56:44;22.20;36.40
33988;DHT22;37428;53.580;-1.666;2023-05-21T17:00:57;22.20;34.40
33988;DHT22;37428;53.580;-1.666;2023-05-21T17:03:59;22.00;35.00
33988;DHT22;37428;53.580;-1.666;2023-05-21T17:07:04;21.70;34.60
33988;DHT22;37428;53.580;-1.666;2023-05-21T17:10:08;21.70;36.60
33988;DHT22;37428;53.580;-1.666;2023-05-21T17:13:10;21.40;37.10
33988;DHT22;37428;53.580;-1.666;2023-05-21T17:16:14;21.40;38.30
33988;DHT22;37428;53.580;-1.666;2023-05-21T17:19:21;21.20;38.90
33988;DHT22;37428;53.580;-1.666;2023-05-21T17:22:38;20.80;39.10
33988;DHT22;37428;53.580;-1.666;2023-05-21T17:25:40;20.70;40.10
33988;DHT22;37428;53.580;-1.666;2023-05-21T17:29:04;20.70;40.90
33988;DHT22;37428;53.580;-1.666;2023-05-21T17:32:22;20.40;40.50
33988;DHT22;37428;53.580;-1.666;2023-05-21T17:35:36;20.30;41.20
33988;DHT22;37428;53.580;-1.666;2023-05-21T17:38:45;20.40;41.80
33988;DHT22;37428;53.580;-1.666;2023-05-21T17:42:06;20.50;41.80
33988;DHT22;37428;53.580;-1.666;2023-05-21T17:45:11;20.20;41.40
33988;DHT22;37428;53.580;-1.666;2023-05-21T17:48:13;20.00;42.10
33988;DHT22;37428;53.580;-1.666;2023-05-21T17:51:31;19.70;42.70
33988;DHT22;37428;53.580;-1.666;2023-05-21T17:54:49;19.40;43.10
33988;DHT22;37428;53.580;-1.666;2023-05-21T17:57:54;19.20;43.90
33988;DHT22;37428;53.580;-1.666;2023-05-21T18:01:10;19.00;44.50
33988;DHT22;37428;53.580;-1.666;2023-05-21T18:04:24;19.00;45.60
33988;DHT22;37428;53.580;-1.666;2023-05-21T18:07:38;19.00;44.80
33988;DHT22;37428;53.580;-1.666;2023-05-21T18:11:29;18.90;45.10
33988;DHT22;37428;53.580;-1.666;2023-05-21T18:14:45;18.80;44.50
33988;DHT22;37428;53.580;-1.666;2023-05-21T18:18:07;18.70;45.20
33988;DHT22;37428;53.580;-1.666;2023-05-21T18:21:33;18.60;45.10
33988;DHT22;37428;53.580;-1.666;2023-05-21T18:24:53;18.60;45.60
33988;DHT22;37428;53.580;-1.666;2023-05-21T18:28:29;18.50;45.00
33988;DHT22;37428;53.580;-1.666;2023-05-21T18:31:56;18.40;45.90
33988;DHT22;37428;53.580;-1.666;2023-05-21T18:35:01;18.40;45.60
33988;DHT22;37428;53.580;-1.666;2023-05-21T18:38:08;18.30;45.30
33988;DHT22;37428;53.580;-1.666;2023-05-21T18:41:26;18.20;45.40
33988;DHT22;37428;53.580;-1.666;2023-05-21T18:44:44;18.10;46.00
33988;DHT22;37428;53.580;-1.666;2023-05-21T18:52:12;18.20;46.30
33988;DHT22;37428;53.580;-1.666;2023-05-21T18:55:11;18.00;46.60
33988;DHT22;37428;53.580;-1.666;2023-05-21T18:58:25;18.00;46.50
33988;DHT22;37428;53.580;-1.666;2023-05-21T19:01:45;17.90;46.30
33988;DHT22;37428;53.580;-1.666;2023-05-21T19:04:53;17.60;46.60
33988;DHT22;37428;53.580;-1.666;2023-05-21T19:08:10;17.50;46.90
33988;DHT22;37428;53.580;-1.666;2023-05-21T19:11:23;17.40;47.40
33988;DHT22;37428;53.580;-1.666;2023-05-21T19:14:34;17.30;47.60
33988;DHT22;37428;53.580;-1.666;2023-05-21T19:17:36;17.20;47.10
33988;DHT22;37428;53.580;-1.666;2023-05-21T19:20:41;17.10;47.30
33988;DHT22;37428;53.580;-1.666;2023-05-21T19:27:55;16.90;47.90
33988;DHT22;37428;53.580;-1.666;2023-05-21T19:31:39;16.90;48.30
33988;DHT22;37428;53.580;-1.666;2023-05-21T19:34:35;16.80;48.40
33988;DHT22;37428;53.580;-1.666;2023-05-21T19:37:47;16.80;48.40
33988;DHT22;37428;53.580;-1.666;2023-05-21T19:41:06;16.80;48.80
33988;DHT22;37428;53.580;-1.666;2023-05-21T19:46:15;16.80;49.00
33988;DHT22;37428;53.580;-1.666;2023-05-21T19:48:20;16.70;49.00
33988;DHT22;37428;53.580;-1.666;2023-05-21T19:51:28;16.60;49.20
33988;DHT22;37428;53.580;-1.666;2023-05-21T19:56:09;16.50;49.10
33988;DHT22;37428;53.580;-1.666;2023-05-21T19:58:19;16.50;49.70
33988;DHT22;37428;53.580;-1.666;2023-05-21T20:01:24;16.40;49.50
33988;DHT22;37428;53.580;-1.666;2023-05-21T20:04:35;16.40;49.40